Time;durP1;ratioP1;P1;durP2;ratioP2;P2;SDS_P1;SDS_P2;PMS_P1;PMS_P2;Temp;Humidity;BMP_temperature;BMP_pressure;BME280_temperature;BME280_humidity;BME280_pressure;Samples;Min_cycle;Max_cycle;Signal;HPM_P1;HPM_P2
2022/04/29 00:02:17;;;;;;;4.20;3.80;;;;;;;12.55;62.68;96430.25;4373120;32;20214;-58
2022/04/29 00:04:43;;;;;;;4.67;4.20;;;;;;;12.66;63.77;96424.56;4385337;32;20173;-58
2022/04/29 00:07:10;;;;;;;3.93;3.73;;;;;;;12.52;63.36;96417.47;4376807;32;20233;-57
2022/04/29 00:09:39;;;;;;;4.63;4.33;;;;;;;12.55;64.19;96420.38;4374938;32;20188;-57
2022/04/29 00:12:07;;;;;;;4.97;3.97;;;;;;;12.32;60.61;96421.09;4377130;32;20199;-58
2022/04/29 00:14:35;;;;;;;4.03;3.70;;;;;;;12.32;65.26;96419.22;4365047;32;20224;-58
2022/04/29 00:17:05;;;;;;;3.87;3.57;;;;;;;12.37;64.94;96410.41;4377909;32;20192;-57
2022/04/29 00:19:33;;;;;;;4.43;4.03;;;;;;;12.36;63.22;96406.16;4362072;32;20172;-59
2022/04/29 00:21:59;;;;;;;4.43;4.10;;;;;;;12.50;62.82;96406.31;4387831;32;20199;-58
2022/04/29 00:24:24;;;;;;;9.57;4.40;;;;;;;12.30;63.70;96404.59;4388934;32;20176;-57
2022/04/29 00:26:50;;;;;;;5.97;4.37;;;;;;;12.15;63.95;96408.16;4389280;32;20176;-59
2022/04/29 00:29:17;;;;;;;4.37;4.07;;;;;;;12.23;61.98;96399.59;4390332;32;20177;-58
2022/04/29 00:31:42;;;;;;;4.00;3.73;;;;;;;12.25;62.84;96394.81;4350430;32;20195;-58
2022/04/29 00:34:07;;;;;;;4.77;3.93;;;;;;;12.39;63.56;96405.63;4382796;32;20212;-58
2022/04/29 00:36:34;;;;;;;4.33;3.97;;;;;;;12.29;64.05;96401.16;4371415;32;20291;-58
2022/04/29 00:39:00;;;;;;;4.73;4.03;;;;;;;12.27;65.05;96399.81;4349304;32;20219;-58
2022/04/29 00:41:27;;;;;;;4.53;4.23;;;;;;;12.33;64.71;96399.53;4376360;32;20192;-58
2022/04/29 00:44:08;;;;;;;4.77;4.23;;;;;;;12.31;64.43;96399.00;4367943;32;20185;-58
2022/04/29 00:46:39;;;;;;;5.10;4.80;;;;;;;12.11;62.69;96391.16;4374003;32;20224;-58
2022/04/29 00:49:09;;;;;;;4.50;4.10;;;;;;;12.29;64.81;96392.38;4371623;32;20196;-57
2022/04/29 00:51:37;;;;;;;4.53;4.10;;;;;;;12.35;64.33;96381.41;4365909;32;20192;-57
2022/04/29 00:54:08;;;;;;;4.50;4.20;;;;;;;12.05;65.33;96392.28;4385867;32;20220;-57
2022/04/29 00:56:38;;;;;;;4.73;4.43;;;;;;;11.67;66.62;96386.59;4388968;32;20251;-57
2022/04/29 00:59:24;;;;;;;4.30;4.10;;;;;;;11.58;66.36;96385.59;4369207;32;20226;-57
2022/04/29 01:01:51;;;;;;;4.73;4.27;;;;;;;12.05;66.00;96386.97;4370067;32;20184;-57
2022/04/29 01:05:00;;;;;;;4.80;4.40;;;;;;;11.98;63.85;96378.50;4370215;32;20205;-58
2022/04/29 01:07:30;;;;;;;4.30;4.10;;;;;;;11.50;63.47;96370.19;4299113;33;20199;-57
2022/04/29 01:09:56;;;;;;;5.07;4.60;;;;;;;11.51;66.53;96378.97;4299724;33;20281;-58
2022/04/29 01:12:31;;;;;;;5.63;4.50;;;;;;;11.59;66.81;96367.78;4385282;32;20229;-58
2022/04/29 01:15:05;;;;;;;4.20;4.00;;;;;;;11.75;66.06;96366.63;4378452;32;20212;-58
2022/04/29 01:17:34;;;;;;;4.50;4.20;;;;;;;11.88;65.25;96365.25;4359770;32;20184;-58
2022/04/29 01:20:05;;;;;;;4.30;3.90;;;;;;;12.02;65.18;96353.75;4372129;32;20215;-57
2022/04/29 01:22:32;;;;;;;4.23;3.83;;;;;;;11.99;63.87;96353.50;4394283;32;20216;-57
2022/04/29 01:24:59;;;;;;;4.60;4.20;;;;;;;11.95;65.38;96360.41;4368832;32;20204;-58
2022/04/29 01:27:26;;;;;;;4.17;3.87;;;;;;;11.78;65.89;96363.44;4395366;32;20199;-58
2022/04/29 01:30:01;;;;;;;3.80;3.60;;;;;;;11.38;67.25;96364.41;4388575;32;20185;-57
2022/04/29 01:32:29;;;;;;;5.10;4.70;;;;;;;11.85;66.26;96365.78;4369102;32;20241;-56
2022/04/29 01:34:55;;;;;;;3.70;3.50;;;;;;;11.56;65.03;96358.50;4395844;32;20184;-57
2022/04/29 01:37:22;;;;;;;4.70;4.30;;;;;;;11.64;66.65;96365.87;4382296;32;20188;-59
2022/04/29 01:39:49;;;;;;;4.73;4.43;;;;;;;11.73;66.20;96363.44;4393935;32;20177;-57
2022/04/29 01:42:14;;;;;;;4.40;4.10;;;;;;;11.60;65.78;96362.19;4391021;32;20188;-56
2022/04/29 01:44:40;;;;;;;4.37;3.73;;;;;;;11.46;63.21;96374.47;4382387;32;20373;-59
2022/04/29 01:47:22;;;;;;;4.70;4.40;;;;;;;11.46;66.13;96358.53;4394251;32;20184;-58
2022/04/29 01:49:47;;;;;;;4.00;3.60;;;;;;;11.59;63.71;96367.78;4369957;32;20234;-58
2022/04/29 01:52:14;;;;;;;3.80;3.60;;;;;;;11.55;66.93;96356.91;4360480;32;20348;-58
2022/04/29 01:54:40;;;;;;;4.00;3.80;;;;;;;11.46;66.74;96353.22;4385793;32;20180;-57
2022/04/29 01:57:09;;;;;;;3.60;3.40;;;;;;;11.66;66.32;96352.31;4394338;32;20214;-57
2022/04/29 01:59:39;;;;;;;3.60;3.37;;;;;;;11.65;65.66;96356.81;4381168;32;20238;-58
2022/04/29 02:02:06;;;;;;;3.60;3.40;;;;;;;11.23;63.56;96359.16;4359085;32;20264;-58
2022/04/29 02:04:34;;;;;;;3.70;3.50;;;;;;;11.49;66.77;96363.28;4377144;32;20236;-58
2022/04/29 02:07:05;;;;;;;4.10;3.90;;;;;;;11.47;66.89;96354.78;4366434;32;20239;-59
2022/04/29 02:09:31;;;;;;;4.10;3.90;;;;;;;11.21;65.08;96350.69;4375321;32;20192;-57
2022/04/29 02:12:06;;;;;;;4.33;4.03;;;;;;;10.60;64.27;96356.09;4364911;32;20176;-58
2022/04/29 02:14:37;;;;;;;4.10;3.83;;;;;;;10.63;69.57;96344.97;4374363;32;20336;-57
2022/04/29 02:17:08;;;;;;;3.43;3.23;;;;;;;10.96;67.07;96341.72;4366040;32;20315;-58
2022/04/29 02:19:38;;;;;;;4.10;3.73;;;;;;;11.19;67.79;96336.88;4359375;32;20224;-58
2022/04/29 02:22:06;;;;;;;4.47;4.10;;;;;;;10.95;66.84;96342.00;4354410;32;20180;-58
2022/04/29 02:24:36;;;;;;;4.00;3.70;;;;;;;10.81;66.49;96339.09;4355906;32;20197;-58
2022/04/29 02:27:04;;;;;;;4.07;3.63;;;;;;;11.16;67.42;96335.56;4376649;32;20207;-58
2022/04/29 02:29:40;;;;;;;4.20;3.80;;;;;;;11.13;67.89;96333.44;4375453;32;20180;-58
2022/04/29 02:32:08;;;;;;;4.73;3.70;;;;;;;11.18;67.84;96340.59;4352656;32;20204;-56
2022/04/29 02:34:36;;;;;;;4.00;3.70;;;;;;;11.11;66.46;96324.16;4340028;32;20228;-58
2022/04/29 02:37:03;;;;;;;3.83;3.63;;;;;;;10.55;66.71;96335.72;4341551;32;20177;-57
2022/04/29 02:39:31;;;;;;;3.77;3.47;;;;;;;10.89;68.10;96327.94;4359704;32;20189;-57
2022/04/29 02:41:58;;;;;;;3.60;3.30;;;;;;;10.87;68.87;96339.88;4374753;32;20203;-58
2022/04/29 02:44:23;;;;;;;4.03;3.83;;;;;;;10.82;67.57;96330.06;4365866;32;20212;-58
2022/04/29 02:47:08;;;;;;;4.27;3.97;;;;;;;10.63;65.11;96326.38;4368603;32;20199;-57
2022/04/29 02:49:41;;;;;;;3.67;3.37;;;;;;;10.64;69.15;96333.28;4364862;32;20204;-57
2022/04/29 02:52:11;;;;;;;3.67;3.47;;;;;;;10.58;68.35;96326.41;4368570;32;20203;-58
2022/04/29 02:54:37;;;;;;;3.63;3.43;;;;;;;10.31;69.76;96322.19;4375043;32;20193;-57
2022/04/29 02:57:05;;;;;;;4.13;3.73;;;;;;;10.49;69.15;96325.34;4367279;32;20180;-58
2022/04/29 02:59:32;;;;;;;3.80;3.60;;;;;;;10.70;68.03;96324.25;4354873;32;20173;-56
2022/04/29 03:01:58;;;;;;;3.87;3.57;;;;;;;10.79;68.25;96311.25;4364995;32;20243;-58
2022/04/29 03:04:24;;;;;;;3.40;3.20;;;;;;;10.65;68.63;96314.44;4380356;32;20306;-58
2022/04/29 03:06:57;;;;;;;3.70;3.50;;;;;;;10.85;67.41;96299.53;4365346;32;20192;-58
2022/04/29 03:09:22;;;;;;;3.90;3.70;;;;;;;10.74;68.29;96303.28;4388498;32;20207;-58
2022/04/29 03:11:50;;;;;;;3.90;3.60;;;;;;;10.33;66.66;96304.16;4389750;32;20188;-57
2022/04/29 03:14:16;;;;;;;3.80;3.60;;;;;;;10.50;69.54;96298.56;4392456;32;20212;-58
2022/04/29 03:16:43;;;;;;;3.83;3.63;;;;;;;10.54;69.10;96294.31;4390228;32;20321;-57
2022/04/29 03:19:09;;;;;;;3.90;3.70;;;;;;;10.43;67.82;96297.25;4382219;32;20185;-58
2022/04/29 03:21:36;;;;;;;3.80;3.40;;;;;;;10.27;69.86;96283.22;4370849;32;20197;-58
2022/04/29 03:24:04;;;;;;;3.90;3.60;;;;;;;10.44;68.34;96288.22;4388671;32;20282;-58
2022/04/29 03:26:30;;;;;;;3.50;3.30;;;;;;;10.41;67.83;96291.41;4387373;32;20192;-59
2022/04/29 03:28:59;;;;;;;3.87;3.60;;;;;;;10.24;67.92;96299.66;4391101;32;20268;-56
2022/04/29 03:31:24;;;;;;;4.20;3.90;;;;;;;9.94;69.80;96298.59;4390631;32;20194;-59
2022/04/29 03:33:55;;;;;;;3.50;3.20;;;;;;;10.26;69.03;96295.69;4391501;32;20200;-58
2022/04/29 03:36:25;;;;;;;3.43;3.20;;;;;;;10.35;68.41;96292.50;4376204;32;20188;-59
2022/04/29 03:38:55;;;;;;;3.37;3.17;;;;;;;10.31;69.55;96293.03;4389057;32;20199;-59
2022/04/29 03:41:21;;;;;;;3.50;3.30;;;;;;;10.50;68.66;96287.16;4374207;32;20180;-57
2022/04/29 03:43:48;;;;;;;3.93;3.63;;;;;;;10.20;69.42;96285.31;4381031;32;20184;-56
2022/04/29 03:46:26;;;;;;;3.70;3.50;;;;;;;10.68;67.93;96283.94;4389851;32;20317;-58
2022/04/29 03:51:38;;;;;;;3.70;3.50;;;;;;;10.19;67.90;96297.78;4390586;32;20199;-58
2022/04/29 03:54:03;;;;;;;5.53;3.30;;;;;;;10.09;69.11;96291.69;4387535;32;20231;-57
2022/04/29 03:56:33;;;;;;;3.83;3.60;;;;;;;10.41;68.33;96296.72;4388980;32;20281;-57
2022/04/29 03:58:58;;;;;;;3.60;3.40;;;;;;;10.49;67.89;96294.31;4370250;32;20181;-57
2022/04/29 04:01:29;;;;;;;4.73;3.53;;;;;;;10.64;67.92;96290.84;4389174;32;20234;-56
2022/04/29 04:03:58;;;;;;;3.67;3.37;;;;;;;10.59;68.70;96294.31;4380219;32;20216;-57
2022/04/29 04:09:10;;;;;;;3.77;3.50;;;;;;;10.56;68.20;96292.19;4391267;32;20225;-57
2022/04/29 04:11:37;;;;;;;4.57;3.83;;;;;;;10.62;67.50;96298.25;4389186;32;20199;-57
2022/04/29 04:14:03;;;;;;;3.90;3.60;;;;;;;10.48;68.68;96289.28;4383439;32;20211;-57
2022/04/29 04:16:31;;;;;;;4.00;3.60;;;;;;;10.40;69.85;96292.47;4386834;32;20192;-58
2022/04/29 04:18:57;;;;;;;4.33;3.10;;;;;;;10.58;68.04;96299.88;4389697;32;20235;-59
2022/04/29 04:21:23;;;;;;;4.17;3.53;;;;;;;10.28;69.15;96306.81;4391291;32;20259;-59
2022/04/29 04:23:57;;;;;;;3.97;3.67;;;;;;;10.31;68.83;96302.84;4384582;32;20241;-59
2022/04/29 04:26:28;;;;;;;3.57;3.27;;;;;;;10.26;69.19;96303.63;4379110;32;20197;-57
2022/04/29 04:28:53;;;;;;;4.57;3.40;;;;;;;10.23;68.77;96313.97;4380670;32;20270;-57
2022/04/29 04:31:32;;;;;;;3.50;3.20;;;;;;;10.20;67.96;96315.28;4398818;32;20189;-58
2022/04/29 04:34:49;;;;;;;3.77;3.47;;;;;;;10.22;67.42;96318.47;4399713;32;20204;-58
2022/04/29 04:36:48;;;;;;;3.53;3.33;;;;;;;10.34;68.68;96320.88;4382757;32;20192;-58
2022/04/29 04:39:14;;;;;;;3.93;3.37;;;;;;;10.37;68.45;96327.50;4376070;32;20268;-59
2022/04/29 04:41:40;;;;;;;4.17;3.83;;;;;;;10.33;67.70;96336.00;4396724;32;20211;-58
2022/04/29 04:44:07;;;;;;;4.57;3.40;;;;;;;9.77;67.64;96342.28;4376766;32;20188;-57
2022/04/29 04:46:33;;;;;;;3.67;3.10;;;;;;;10.36;67.63;96339.19;4371157;32;20188;-58
2022/04/29 04:48:59;;;;;;;3.40;3.20;;;;;;;10.46;67.31;96339.94;4381636;32;20199;-58
2022/04/29 04:51:25;;;;;;;3.67;3.43;;;;;;;10.66;67.65;96331.97;4376726;32;20210;-57
2022/04/29 04:53:51;;;;;;;5.80;3.63;;;;;;;10.73;66.38;96328.25;4351360;32;20193;-62
2022/04/29 04:56:31;;;;;;;3.70;3.40;;;;;;;10.44;67.38;96336.75;4385082;32;20184;-58
2022/04/29 04:58:57;;;;;;;3.50;3.30;;;;;;;10.28;68.64;96335.97;4367313;32;20192;-58
2022/04/29 05:01:33;;;;;;;3.60;3.27;;;;;;;10.25;69.28;96330.41;4378732;32;20211;-58
2022/04/29 05:03:59;;;;;;;4.20;3.80;;;;;;;10.25;68.87;96327.75;4381724;32;20248;-59
2022/04/29 05:06:24;;;;;;;3.97;3.67;;;;;;;10.04;69.03;96342.84;4387785;32;20192;-58
2022/04/29 05:08:53;;;;;;;3.93;3.63;;;;;;;10.45;68.21;96340.22;4377183;32;20207;-58
2022/04/29 05:11:25;;;;;;;5.13;4.63;;;;;;;10.32;68.89;96334.41;4383464;32;20200;-58
2022/04/29 05:13:52;;;;;;;3.77;3.57;;;;;;;10.30;68.34;96325.91;4372009;32;20184;-58
2022/04/29 05:16:29;;;;;;;5.97;3.90;;;;;;;10.76;67.52;96328.50;4377084;32;20223;-58
2022/04/29 05:18:56;;;;;;;8.40;4.40;;;;;;;11.15;66.72;96330.50;4371585;32;20193;-57
2022/04/29 05:21:41;;;;;;;8.63;4.47;;;;;;;10.87;67.35;96335.37;4385901;32;20316;-58
2022/04/29 05:24:10;;;;;;;4.43;4.03;;;;;;;10.50;67.00;96340.22;4380586;32;20192;-58
2022/04/29 05:26:37;;;;;;;4.50;4.10;;;;;;;10.71;67.81;96336.47;4395497;32;20214;-58
2022/04/29 05:29:03;;;;;;;5.77;4.13;;;;;;;10.96;67.21;96332.97;4375287;32;20206;-59
2022/04/29 05:31:31;;;;;;;7.07;4.53;;;;;;;10.98;67.53;96333.50;4384259;32;20192;-58
2022/04/29 05:33:57;;;;;;;4.63;4.17;;;;;;;10.78;67.97;96337.00;4388873;32;20192;-58
2022/04/29 05:36:24;;;;;;;7.47;4.17;;;;;;;11.06;67.61;96332.91;4369029;32;20232;-58
2022/04/29 05:44:23;;;;;;;7.60;5.00;;;;;;;11.37;66.56;96322.97;4377390;32;20207;-59
2022/04/29 05:46:49;;;;;;;5.10;4.80;;;;;;;11.12;66.56;96323.09;4389954;32;20266;-58
2022/04/29 05:49:16;;;;;;;4.87;4.33;;;;;;;11.40;66.01;96332.28;4388396;32;20279;-58
2022/04/29 05:51:45;;;;;;;4.70;4.40;;;;;;;11.38;66.47;96329.88;4391491;32;20266;-58
2022/04/29 05:54:11;;;;;;;4.83;4.30;;;;;;;11.48;65.66;96326.38;4391393;32;20251;-58
2022/04/29 05:56:39;;;;;;;5.80;4.10;;;;;;;11.50;66.03;96327.69;4382336;32;20184;-59
2022/04/29 05:59:05;;;;;;;5.10;4.70;;;;;;;11.74;66.16;96335.00;4390156;32;20189;-58
2022/04/29 06:01:30;;;;;;;9.77;5.40;;;;;;;11.56;64.38;96325.81;4388178;32;20198;-58
2022/04/29 06:03:55;;;;;;;5.87;5.00;;;;;;;11.67;66.53;96328.13;4390066;32;20251;-57
2022/04/29 06:06:35;;;;;;;5.13;4.67;;;;;;;11.66;63.04;96331.03;4388425;32;20269;-59
2022/04/29 06:09:05;;;;;;;5.40;4.67;;;;;;;11.77;65.55;96334.50;4373986;32;20244;-58
2022/04/29 06:11:35;;;;;;;4.90;4.50;;;;;;;11.80;64.80;96326.75;4389989;32;20202;-58
2022/04/29 06:14:03;;;;;;;8.43;4.43;;;;;;;11.68;64.67;96329.69;4376997;32;20223;-58
2022/04/29 06:16:39;;;;;;;4.13;3.50;;;;;;;11.99;64.16;96330.34;4381754;32;20233;-58
2022/04/29 06:19:04;;;;;;;5.37;3.97;;;;;;;12.13;63.54;96335.81;4338746;32;20227;-58
2022/04/29 06:21:31;;;;;;;7.17;4.13;;;;;;;12.26;63.49;96335.19;4370967;32;20188;-59
2022/04/29 06:23:59;;;;;;;5.50;3.83;;;;;;;12.42;64.09;96333.22;4389157;32;20193;-59
2022/04/29 06:26:28;;;;;;;4.73;4.20;;;;;;;12.63;63.40;96326.63;4371809;32;20192;-59
2022/04/29 06:28:55;;;;;;;4.23;3.93;;;;;;;12.62;61.59;96327.69;4403468;32;20199;-58
2022/04/29 06:31:28;;;;;;;3.70;3.40;;;;;;;12.59;61.62;96338.91;4373197;32;20214;-58
2022/04/29 06:33:53;;;;;;;6.20;3.87;;;;;;;12.65;62.59;96337.00;4388230;32;20216;-59
2022/04/29 06:36:32;;;;;;;4.33;3.97;;;;;;;12.97;61.79;96331.06;4385760;32;20270;-59
2022/04/29 06:38:58;;;;;;;4.37;3.43;;;;;;;13.08;60.45;96345.88;4387854;32;20203;-58
2022/04/29 06:41:23;;;;;;;4.40;4.10;;;;;;;13.20;60.98;96337.50;4382453;32;20196;-59
2022/04/29 06:43:53;;;;;;;42.60;6.20;;;;;;;13.23;58.63;96336.94;4372174;32;20192;-58
2022/04/29 06:46:37;;;;;;;15.70;4.60;;;;;;;13.28;60.37;96332.34;4390453;32;20188;-59
2022/04/29 06:49:09;;;;;;;20.67;4.57;;;;;;;13.28;60.18;96335.00;4382331;32;20200;-61
2022/04/29 06:51:36;;;;;;;29.33;6.07;;;;;;;13.32;60.05;96343.22;4370881;32;20235;-58
2022/04/29 06:54:03;;;;;;;18.37;4.40;;;;;;;13.36;59.30;96341.56;4376287;32;20200;-59
2022/04/29 06:56:32;;;;;;;23.20;6.20;;;;;;;13.29;57.49;96347.25;4373540;32;20254;-59
2022/04/29 06:59:02;;;;;;;26.43;4.97;;;;;;;13.41;57.70;96354.84;4356024;32;20188;-60
2022/04/29 07:01:32;;;;;;;20.47;4.33;;;;;;;13.46;58.42;96348.66;4364980;32;20208;-60
2022/04/29 07:04:00;;;;;;;3.33;2.97;;;;;;;13.54;57.58;96348.78;4381392;32;20316;-59
2022/04/29 07:06:25;;;;;;;13.33;3.77;;;;;;;13.41;54.19;96360.16;4372977;32;20200;-60
2022/04/29 07:08:53;;;;;;;5.07;3.50;;;;;;;13.51;57.60;96354.69;4370320;32;20220;-59
2022/04/29 07:11:32;;;;;;;8.23;4.23;;;;;;;13.61;56.98;96359.91;4390243;32;20196;-59
2022/04/29 07:13:58;;;;;;;10.03;3.57;;;;;;;13.72;57.60;96356.03;4388938;32;20213;-59
2022/04/29 07:16:24;;;;;;;3.77;3.40;;;;;;;13.82;55.82;96359.66;4383070;32;20211;-59
2022/04/29 07:18:49;;;;;;;6.43;3.37;;;;;;;13.75;53.60;96355.44;4371795;32;20197;-59
2022/04/29 07:21:24;;;;;;;3.73;3.43;;;;;;;13.86;57.42;96358.00;4386379;32;20202;-59
2022/04/29 07:23:49;;;;;;;4.83;3.37;;;;;;;13.75;52.40;96355.44;4379329;32;20246;-59
2022/04/29 07:26:22;;;;;;;4.10;3.80;;;;;;;13.87;55.18;96352.38;4391359;32;20192;-60
2022/04/29 07:28:50;;;;;;;4.93;3.47;;;;;;;13.74;50.91;96342.41;4379694;32;20196;-59
2022/04/29 07:31:22;;;;;;;3.10;2.90;;;;;;;13.82;55.10;96339.09;4392053;32;20238;-59
2022/04/29 07:33:49;;;;;;;4.13;3.07;;;;;;;13.78;51.08;96338.09;4375463;32;20196;-59
2022/04/29 07:42:19;;;;;;;3.07;2.80;;;;;;;14.12;47.75;96332.53;4334256;32;20222;-60
2022/04/29 07:44:46;;;;;;;5.00;2.70;;;;;;;14.22;44.64;96332.38;4391315;32;20192;-59
2022/04/29 07:47:12;;;;;;;3.60;2.60;;;;;;;14.38;45.89;96325.69;4387136;32;20277;-59
2022/04/29 07:49:38;;;;;;;3.30;3.00;;;;;;;14.43;45.77;96322.19;4369310;32;20208;-59
2022/04/29 07:52:11;;;;;;;3.13;2.70;;;;;;;14.43;45.57;96322.19;4385451;32;20204;-59
2022/04/29 07:54:38;;;;;;;3.27;3.07;;;;;;;14.59;46.06;96314.69;4375667;32;20207;-60
2022/04/29 07:57:05;;;;;;;2.83;2.53;;;;;;;14.69;44.25;96315.31;4382251;32;20199;-60
2022/04/29 07:59:33;;;;;;;5.70;3.13;;;;;;;14.91;45.78;96311.97;4381543;32;20192;-60
2022/04/29 08:01:58;;;;;;;4.23;3.20;;;;;;;14.93;44.04;96311.69;4362499;32;20260;-60
2022/04/29 08:04:26;;;;;;;11.10;9.27;;;;;;;14.79;43.56;96303.66;4367940;32;20224;-60
2022/04/29 08:06:54;;;;;;;5.30;4.87;;;;;;;14.76;44.49;96302.34;4386914;32;20216;-64
2022/04/29 08:09:20;;;;;;;4.60;3.87;;;;;;;14.84;44.37;96308.91;4393337;32;20261;-60
2022/04/29 08:11:46;;;;;;;5.67;3.80;;;;;;;14.79;44.53;96308.97;4346446;32;20245;-61
2022/04/29 08:14:12;;;;;;;5.17;3.10;;;;;;;14.77;43.55;96308.47;4380435;32;20281;-59
2022/04/29 08:16:39;;;;;;;3.67;3.03;;;;;;;14.77;43.48;96301.25;4385611;32;20196;-60
2022/04/29 08:19:08;;;;;;;3.20;3.00;;;;;;;14.76;42.28;96304.22;4386420;32;20224;-60
2022/04/29 08:21:35;;;;;;;3.73;3.30;;;;;;;14.72;40.71;96298.72;4366677;32;20360;-60
2022/04/29 08:24:03;;;;;;;2.90;2.70;;;;;;;14.81;39.67;96298.00;4383307;32;20184;-59
2022/04/29 08:26:28;;;;;;;3.40;3.10;;;;;;;14.75;38.98;96297.34;4378194;32;20189;-60
2022/04/29 08:28:54;;;;;;;3.47;3.17;;;;;;;14.78;40.06;96292.16;4353325;32;20247;-61
2022/04/29 08:31:21;;;;;;;3.77;3.13;;;;;;;14.83;39.18;96285.94;4388417;32;20207;-60
2022/04/29 08:33:48;;;;;;;3.17;2.83;;;;;;;14.90;38.70;96289.03;4362005;32;20251;-60
2022/04/29 08:36:15;;;;;;;6.13;3.03;;;;;;;14.92;39.16;96281.50;4351464;32;20216;-59
2022/04/29 08:38:42;;;;;;;3.50;3.10;;;;;;;14.94;39.28;96283.88;4376581;32;20188;-60
2022/04/29 08:41:12;;;;;;;3.20;2.90;;;;;;;15.01;39.61;96285.06;4390057;32;20279;-63
2022/04/29 08:43:41;;;;;;;2.97;2.77;;;;;;;15.06;38.33;96273.47;4375616;32;20196;-59
2022/04/29 08:46:09;;;;;;;3.30;3.03;;;;;;;15.02;38.72;96275.94;4368748;32;20221;-61
2022/04/29 08:48:36;;;;;;;6.27;2.83;;;;;;;15.15;38.71;96268.25;4385157;32;20232;-60
2022/04/29 08:51:06;;;;;;;3.73;2.80;;;;;;;15.08;38.66;96268.63;4390359;32;20200;-61
2022/04/29 08:53:34;;;;;;;3.03;2.83;;;;;;;15.16;38.61;96267.16;4359474;32;20204;-61
2022/04/29 08:58:49;;;;;;;3.67;3.37;;;;;;;15.41;38.59;96277.28;4387996;32;20233;-61
2022/04/29 09:01:20;;;;;;;3.60;3.40;;;;;;;15.31;39.36;96267.63;4385876;32;20188;-60
2022/04/29 09:03:47;;;;;;;4.33;3.43;;;;;;;15.39;38.63;96258.87;4387064;32;20205;-62
2022/04/29 09:06:22;;;;;;;3.33;3.10;;;;;;;15.50;37.72;96259.44;4375473;32;20199;-61
2022/04/29 09:08:49;;;;;;;3.60;3.30;;;;;;;15.53;37.70;96250.03;4354620;32;20211;-63
2022/04/29 09:11:26;;;;;;;3.20;2.90;;;;;;;15.44;38.40;96260.66;4374348;32;20308;-60
2022/04/29 09:13:53;;;;;;;3.77;2.70;;;;;;;15.57;36.66;96259.88;4382147;32;20191;-60
2022/04/29 09:16:21;;;;;;;4.90;3.10;;;;;;;15.54;35.74;96243.59;4363651;32;20180;-57
2022/04/29 09:18:54;;;;;;;3.87;2.77;;;;;;;15.57;36.66;96249.16;4387662;32;20203;-59
2022/04/29 09:21:33;;;;;;;4.77;3.00;;;;;;;15.60;36.63;96248.53;4388724;32;20303;-59
2022/04/29 09:24:06;;;;;;;3.23;2.93;;;;;;;15.62;37.02;96248.25;4388727;32;20188;-58
2022/04/29 09:26:42;;;;;;;2.97;2.77;;;;;;;15.76;36.88;96233.75;4381789;32;20184;-58
2022/04/29 09:29:20;;;;;;;3.27;2.97;;;;;;;15.88;37.51;96245.78;4384006;32;20188;-61
2022/04/29 09:32:01;;;;;;;3.47;2.90;;;;;;;15.94;36.32;96234.66;4411191;32;20194;-58
2022/04/29 09:34:53;;;;;;;3.40;3.00;;;;;;;16.00;36.81;96238.00;4387069;32;20206;-57
2022/04/29 09:39:26;;;;;;;7.03;3.53;;;;;;;16.07;37.92;96231.13;4382680;32;20267;-57
2022/04/29 09:40:39;;;;;;;3.87;3.60;;;;;;;16.05;37.61;96237.88;4369545;32;20224;-62
2022/04/29 09:43:04;;;;;;;4.63;4.33;;;;;;;15.88;38.74;96232.41;4372638;32;20192;-59
2022/04/29 09:45:29;;;;;;;6.67;4.90;;;;;;;15.62;38.54;96232.19;4390821;32;20256;-58
2022/04/29 09:47:59;;;;;;;12.60;9.43;;;;;;;15.59;38.04;96230.91;4383386;32;20241;-58
2022/04/29 09:50:50;;;;;;;4.20;3.30;;;;;;;15.66;39.00;96231.28;4380105;32;20200;-58
2022/04/29 09:53:27;;;;;;;3.47;3.20;;;;;;;15.79;39.49;96225.09;4384439;32;20204;-58
2022/04/29 09:56:10;;;;;;;3.13;2.93;;;;;;;16.01;39.68;96221.63;4395259;32;20219;-59
2022/04/29 09:58:41;;;;;;;2.90;2.70;;;;;;;16.07;38.98;96224.97;4357786;32;20208;-58
2022/04/29 10:01:09;;;;;;;3.93;3.40;;;;;;;16.04;39.41;96220.22;4376258;32;20208;-59
2022/04/29 10:03:35;;;;;;;3.57;3.37;;;;;;;16.10;39.35;96219.00;4366476;32;20224;-59
2022/04/29 10:06:12;;;;;;;4.47;3.20;;;;;;;16.12;39.00;96222.97;4369814;32;20230;-59
2022/04/29 10:08:40;;;;;;;3.47;3.27;;;;;;;16.19;39.00;96219.06;4400986;32;20215;-59
2022/04/29 10:11:10;;;;;;;4.50;4.20;;;;;;;16.13;40.34;96224.53;4355596;32;20192;-60
2022/04/29 10:13:40;;;;;;;3.67;3.37;;;;;;;16.30;39.43;96207.78;4384690;32;20184;-59
2022/04/29 10:16:06;;;;;;;3.40;3.10;;;;;;;16.20;39.48;96207.25;4384019;32;20212;-59
2022/04/29 10:21:24;;;;;;;2.90;2.50;;;;;;;16.28;37.94;96204.63;4353756;32;20207;-61
2022/04/29 10:23:51;;;;;;;4.93;3.10;;;;;;;16.37;38.45;96207.34;4381362;32;20216;-59
2022/04/29 10:26:22;;;;;;;3.60;3.00;;;;;;;16.49;39.00;96202.19;4364463;32;20206;-59
2022/04/29 10:28:52;;;;;;;5.33;3.77;;;;;;;16.61;37.51;96191.69;4341043;32;20192;-59
2022/04/29 10:31:20;;;;;;;5.87;5.33;;;;;;;16.82;37.78;96208.03;4358355;32;20192;-59
2022/04/29 10:33:46;;;;;;;7.43;5.37;;;;;;;16.75;36.57;96197.75;4374799;32;20287;-60
2022/04/29 10:36:16;;;;;;;4.33;4.03;;;;;;;16.66;36.97;96193.47;4380230;32;20263;-59
2022/04/29 10:38:46;;;;;;;5.20;4.00;;;;;;;16.69;36.91;96198.19;4389038;32;20280;-58
2022/04/29 10:41:19;;;;;;;3.63;3.43;;;;;;;16.65;37.67;96190.00;4365059;32;20319;-57
2022/04/29 10:43:47;;;;;;;4.20;3.23;;;;;;;16.67;36.26;96190.47;4387811;32;20247;-58
2022/04/29 10:46:36;;;;;;;3.30;2.73;;;;;;;16.67;36.29;96200.41;4375459;32;20196;-59
2022/04/29 10:49:30;;;;;;;3.93;3.40;;;;;;;16.75;36.41;96188.94;4350247;32;20181;-59
2022/04/29 10:52:00;;;;;;;4.93;3.70;;;;;;;16.83;35.16;96193.53;4368637;32;20215;-59
2022/04/29 10:54:35;;;;;;;3.00;2.80;;;;;;;16.83;35.78;96172.09;4374491;32;20180;-59
2022/04/29 10:57:08;;;;;;;3.03;2.83;;;;;;;16.82;36.28;96181.25;4368234;32;20230;-59
2022/04/29 10:59:51;;;;;;;8.37;3.63;;;;;;;16.91;37.77;96174.00;4380678;32;20207;-59
2022/04/29 11:02:25;;;;;;;3.43;3.13;;;;;;;16.99;36.23;96181.28;4352336;32;20211;-59
2022/04/29 11:04:51;;;;;;;2.83;2.60;;;;;;;17.10;36.03;96179.84;4370224;32;20247;-58
2022/04/29 11:07:37;;;;;;;5.63;2.30;;;;;;;17.06;34.21;96176.22;4369054;32;20197;-59
2022/04/29 11:10:06;;;;;;;2.50;2.40;;;;;;;16.92;35.21;96164.84;4371474;32;20214;-58
2022/04/29 11:12:37;;;;;;;2.40;2.20;;;;;;;16.93;34.70;96168.31;4380743;32;20211;-58
2022/04/29 11:15:36;;;;;;;5.00;3.70;;;;;;;16.97;35.10;96162.03;4378027;32;20249;-58
2022/04/29 11:18:25;;;;;;;3.10;2.90;;;;;;;16.90;36.59;96164.38;4359161;32;20229;-59
2022/04/29 11:20:56;;;;;;;3.93;2.00;;;;;;;16.98;35.80;96162.81;4380644;32;20207;-63
2022/04/29 11:26:13;;;;;;;3.10;2.90;;;;;;;17.08;35.44;96157.94;4381054;32;20202;-59
2022/04/29 11:28:38;;;;;;;2.70;2.50;;;;;;;17.17;35.63;96144.53;4390194;32;20248;-59
2022/04/29 11:31:06;;;;;;;3.83;3.53;;;;;;;17.06;35.65;96143.25;4359222;32;20200;-59
2022/04/29 11:33:34;;;;;;;5.53;5.03;;;;;;;17.10;36.24;96136.94;4351555;32;20204;-59
2022/04/29 11:36:01;;;;;;;5.57;4.13;;;;;;;17.25;34.05;96141.06;4363944;32;20244;-58
2022/04/29 11:38:28;;;;;;;3.20;3.00;;;;;;;17.22;33.48;96140.91;4385757;32;20395;-59
2022/04/29 11:40:54;;;;;;;126.37;79.27;;;;;;;17.20;33.07;96140.44;4359357;32;20183;-57
2022/04/29 11:43:23;;;;;;;7.57;6.87;;;;;;;17.25;33.33;96129.56;4363352;32;20223;-57
2022/04/29 11:46:05;;;;;;;6.50;5.73;;;;;;;17.37;34.56;96129.72;4382072;32;20208;-58
2022/04/29 11:48:34;;;;;;;16.10;12.23;;;;;;;17.35;35.31;96118.50;4366504;32;20192;-58
2022/04/29 11:51:05;;;;;;;5.07;3.80;;;;;;;17.37;35.28;96117.09;4372062;32;20242;-60
2022/04/29 11:53:33;;;;;;;3.50;2.80;;;;;;;17.30;35.92;96121.34;4356316;32;20223;-58
2022/04/29 11:55:59;;;;;;;2.70;2.13;;;;;;;17.43;35.86;96118.50;4338257;32;20201;-59
2022/04/29 11:58:28;;;;;;;2.83;2.70;;;;;;;17.56;34.06;96114.06;4341979;32;20617;-57
2022/04/29 12:00:57;;;;;;;2.63;2.40;;;;;;;17.62;33.35;96112.81;4363785;32;20254;-57
2022/04/29 12:03:25;;;;;;;2.30;2.20;;;;;;;17.41;34.14;96119.94;4377931;32;20255;-58
2022/04/29 12:05:53;;;;;;;3.30;3.00;;;;;;;17.56;33.60;96107.91;4384561;32;20277;-58
2022/04/29 12:08:20;;;;;;;4.97;3.00;;;;;;;17.61;34.32;96100.50;4381898;32;20192;-58
2022/04/29 12:10:47;;;;;;;7.60;3.80;;;;;;;17.53;35.76;96109.34;4377346;32;20188;-58
2022/04/29 12:13:13;;;;;;;4.23;3.63;;;;;;;17.55;35.88;96101.75;4375488;32;20295;-58